1989 WINONA (1989010N16212)


On this page: IBTrACS data - Map and Plots - Positions - Intensities - Original source data

Summary

Start Jan 9
End Jan 22
Basins EP
WP
LMI 55 kt
Sources jtwc_wp
tokyo
cphc
cma
hko
td9636
In WMO? Yes
Previous storm 1989 CALASANJY (SI)
Previous in basin 1988 JOAN (NA)
Concurrent storms 1989 GINA (SP)
1989 CALASANJY (SI)
1989 WINONA (EP)
1989 DONA (SI)
1989 EDME (SI)
Next in basin Missing
Next storm 1989 DONA (SI)

top of page IBTrACS Data: File Access

top of page HURSAT Data: File Access

Image of storm

top of page Plots:

Map of storm track will not appear if FTP is down
Time series of cyclone Maximum Sustained Wind will not appear if FTP is down
Time series of cyclone Minimum Central Pressure will not appear if FTP is down

top of page Track Data:Position

jtwc_wp tokyo cphc cma hko td9636
Date Lat Lon Lat Lon Lat Lon Lat Lon Lat Lon Lat Lon
1989-01-09 12:00:00 15.9 -148.3 15.9 -148.3 15.9 211.7
1989-01-09 18:00:00 16.2 -149.3 16.2 -149.3 16.2 210.8
1989-01-10 00:00:00 16.4 -150.3 16.4 -150.3 16.4 209.7
1989-01-10 06:00:00 16.6 -151.5 16.6 -151.5 16.6 208.4
1989-01-10 12:00:00 16.8 -153.1 16.8 -153.1 16.8 206.9
1989-01-10 18:00:00 17.2 -154.9 17.2 -154.9 17.3 204.9
1989-01-11 00:00:00 17.9 -156.9 17.9 -156.9 17.9 203.1
1989-01-11 06:00:00 18.7 -158.3 18.7 -158.3 18.7 201.9
1989-01-11 12:00:00 19.5 -159.0 19.5 -159.0 19.5 201.0
1989-01-11 18:00:00 20.0 -160.0 20.0 -160.0 20.0 199.9
1989-01-12 00:00:00 20.4 -161.3 20.4 -161.3 20.4 198.7
1989-01-12 06:00:00 20.6 -162.4 20.6 -162.4 20.6 197.5
1989-01-12 12:00:00 20.8 -163.8 20.8 -163.8 20.8 196.2
1989-01-12 18:00:00 21.0 -165.0 21.0 -165.0 21.1 195.0
1989-01-13 00:00:00 21.3 -166.2 21.3 -166.2 21.3 193.8
1989-01-13 06:00:00 21.2 -167.5 21.2 -167.5 21.2 192.6
1989-01-13 12:00:00 21.0 -168.8 21.0 -168.8 21.0 191.2
1989-01-13 18:00:00 20.7 -170.5 20.7 -170.5 20.9 189.5
1989-01-14 00:00:00 20.9 -172.1 20.9 -172.1 20.9 187.9
1989-01-14 06:00:00 20.9 -173.1 20.9 -173.1 20.9 186.9
1989-01-14 12:00:00 20.9 -174.2 20.9 -174.2 20.9 185.8
1989-01-14 18:00:00 21.0 -175.8 21.0 -175.8 21.0 184.3
1989-01-15 00:00:00 21.0 -177.5 21.0 -177.5 21.0 182.5
1989-01-15 06:00:00 21.0 -179.5 21.0 180.5 21.0 -179.5 20.9 180.7
1989-01-15 12:00:00 20.6 178.7 21.0 178.5 20.6 178.7
jtwc_wp tokyo cphc cma hko td9636
1989-01-15 18:00:00 20.4 176.7 20.5 176.5 20.2 176.7
1989-01-16 00:00:00 19.7 174.5 19.5 174.0 19.7 174.5
1989-01-16 06:00:00 19.0 172.0 18.5 171.5 19.1 172.0
1989-01-16 12:00:00 18.5 169.3 18.0 169.0 18.5 169.3
1989-01-16 18:00:00 18.0 166.6 17.5 166.5 18.1 166.4
1989-01-17 00:00:00 17.7 163.5 17.0 164.0 17.7 163.5
1989-01-17 06:00:00 17.3 160.8 17.0 161.5 17.2 160.6
1989-01-17 12:00:00 16.8 158.0 17.0 159.0 16.8 158.0
1989-01-17 18:00:00 16.7 156.0 17.0 157.0 16.7 156.7 16.9 156.0 16.6 155.8
1989-01-18 00:00:00 16.5 153.8 17.0 154.5 16.9 154.3 16.7 153.4 16.5 153.8
1989-01-18 06:00:00 16.4 151.8 17.0 152.0 16.7 152.0 16.6 151.6 16.4 151.9
1989-01-18 12:00:00 16.2 150.0 16.5 150.0 16.3 150.2 16.4 150.0 16.2 150.0
1989-01-18 18:00:00 15.8 148.0 16.0 148.0 16.0 148.2 16.0 148.2 15.8 148.0
1989-01-19 00:00:00 15.2 145.7 15.2 145.4 15.5 145.6 15.1 145.6 15.2 145.7
1989-01-19 06:00:00 14.6 142.9 14.6 143.3 15.2 143.4 14.5 142.9 14.6 142.9
1989-01-19 12:00:00 14.0 140.0 14.0 140.0 14.0 140.0 13.9 139.9 14.0 140.0
1989-01-19 18:00:00 13.8 137.2 13.5 136.5 13.4 137.0 13.4 136.9 13.7 137.1
1989-01-20 00:00:00 13.5 134.5 13.5 133.5 13.0 133.8 13.7 134.5 13.5 134.5
1989-01-20 06:00:00 13.5 132.3 13.5 132.0 13.6 132.1 13.7 132.5 13.5 132.3
1989-01-20 12:00:00 13.5 130.5 13.5 130.0 14.0 130.4 13.5 130.6 13.5 130.5
1989-01-20 18:00:00 13.3 128.9 13.0 128.5 13.5 128.5 13.4 128.8 13.4 129.0
1989-01-21 00:00:00 13.1 127.7 13.0 127.0 13.0 127.0 13.1 127.7
1989-01-21 06:00:00 12.3 126.3 12.5 126.3
1989-01-21 12:00:00 11.9 124.7 11.9 124.7
jtwc_wp tokyo cphc cma hko td9636
1989-01-21 18:00:00 11.7 123.2 11.6 122.8
1989-01-22 00:00:00 11.6 120.8 11.6 120.8

top of pageTrack Data:Intensity

jtwc_wp tokyo cphc cma hko td9636
Date Wind Pres Wind Pres Wind Pres Wind Pres Wind Pres Wind Pres
1989-01-09 12:00:00 25. 25. 25.
1989-01-09 18:00:00 25. 25. 25.
1989-01-10 00:00:00 25. 25. 25.
1989-01-10 06:00:00 25. 25. 25.
1989-01-10 12:00:00 25. 25. 25.
1989-01-10 18:00:00 25. 25. 25.
1989-01-11 00:00:00 25. 25. 25.
1989-01-11 06:00:00 25. 25. 25.
1989-01-11 12:00:00 25. 25. 25.
1989-01-11 18:00:00 25. 25. 25.
1989-01-12 00:00:00 25. 25. 25.
1989-01-12 06:00:00 25. 25. 25.
1989-01-12 12:00:00 30. 30. 30.
1989-01-12 18:00:00 30. 30. 30.
1989-01-13 00:00:00 30. 30. 30.
1989-01-13 06:00:00 30. 30. 30.
1989-01-13 12:00:00 30. 30. 30.
1989-01-13 18:00:00 35. 35. 30.
1989-01-14 00:00:00 40. 40. 40.
1989-01-14 06:00:00 40. 40. 40.
1989-01-14 12:00:00 40. 40. 40.
1989-01-14 18:00:00 40. 40. 40.
1989-01-15 00:00:00 40. 40. 40.
1989-01-15 06:00:00 40. 1012. 40. 40.
1989-01-15 12:00:00 40. 1012. 40.
jtwc_wp tokyo cphc cma hko td9636
1989-01-15 18:00:00 40. 1012. 40.
1989-01-16 00:00:00 40. 1012. 40.
1989-01-16 06:00:00 40. 1010. 40.
1989-01-16 12:00:00 40. 1010. 40.
1989-01-16 18:00:00 40. 1008. 40.
1989-01-17 00:00:00 40. 1008. 40.
1989-01-17 06:00:00 40. 1008. 40.
1989-01-17 12:00:00 40. 1008. 40.
1989-01-17 18:00:00 40. 1004. 29. 1002. 30. 1000. 40.
1989-01-18 00:00:00 40. 35. 1002. 29. 1002. 30. 1000. 40.
1989-01-18 06:00:00 45. 35. 1002. 29. 1002. 35. 997. 40.
1989-01-18 12:00:00 50. 35. 1002. 29. 1000. 40. 995. 50.
1989-01-18 18:00:00 50. 35. 1002. 29. 1000. 35. 997. 50.
1989-01-19 00:00:00 55. 35. 1000. 29. 1000. 35. 997. 55.
1989-01-19 06:00:00 55. 35. 1000. 39. 995. 35. 997. 55.
1989-01-19 12:00:00 55. 35. 1002. 39. 995. 30. 1000. 55.
1989-01-19 18:00:00 45. 1004. 39. 995. 25. 1003. 55.
1989-01-20 00:00:00 40. 1004. 39. 995. 25. 1003. 40.
1989-01-20 06:00:00 30. 1004. 29. 1000. 30. 1000. 40.
1989-01-20 12:00:00 30. 1004. 29. 1002. 30. 1000. 30.
1989-01-20 18:00:00 30. 1004. 23. 1002. 30. 1000. 30.
1989-01-21 00:00:00 30. 1006. 23. 1004. 30.
1989-01-21 06:00:00 25. 30.
1989-01-21 12:00:00 25. 25.
jtwc_wp tokyo cphc cma hko td9636
1989-01-21 18:00:00 20. 25.
1989-01-22 00:00:00 20. 20.

top of page Links to source data

Source Source file Format
jtwc_wp bwp011989.txt ATCF
tokyo bst_all.txt:Line=37577:WINONA:8901 JMA text table
cphc CPHC_Rebest_1966-2003.csv:Line=1113:WINONA CPHC CSV (from Excel file)
cma CH1989BST.txt:Storm=1:Winona CMA text table
hko tc-besttrack-data-current.txt:Line=19787:WINONA HKO Text table
td9636 cons_worldwide_trop_cyclone_18710101-19891231-003:Line=31655 TD 9636